Aviation Digital Data Service (ADDS)

Output produced by TAFs form (1159 UTC 29 August 2014)
found at http://aviationweather.gov/adds/tafs/
 
KDMN 291120Z 2912/3012 VRB05KT P6SM SKC 
     FM291800 07007KT P6SM FEW090 
     FM300400 VRB05KT P6SM SKC